Time;durP1;ratioP1;P1;durP2;ratioP2;P2;SDS_P1;SDS_P2;PMS_P1;PMS_P2;Temp;Humidity;BMP_temperature;BMP_pressure;BME280_temperature;BME280_humidity;BME280_pressure;Samples;Min_cycle;Max_cycle;Signal;HPM_P1;HPM_P2
2022/11/03 00:01:11;;;;;;;7.80;2.72;;;11.10;69.20;;;;;;2374885;56;21665;-60
2022/11/03 00:03:38;;;;;;;6.87;2.53;;;11.00;69.40;;;;;;2374703;56;21617;-60
2022/11/03 00:06:06;;;;;;;9.73;3.20;;;11.10;69.50;;;;;;2374532;56;21118;-59
2022/11/03 00:08:35;;;;;;;12.55;3.17;;;11.00;69.30;;;;;;2374675;56;21617;-59
2022/11/03 00:11:08;;;;;;;9.35;2.33;;;11.00;69.10;;;;;;2374743;56;21038;-58
2022/11/03 00:13:36;;;;;;;6.00;2.67;;;11.10;69.30;;;;;;2374951;56;21030;-60
2022/11/03 00:16:06;;;;;;;6.97;2.80;;;11.10;69.20;;;;;;2374649;56;21046;-62
2022/11/03 00:18:33;;;;;;;8.75;2.90;;;11.10;69.30;;;;;;2374087;56;21597;-60
2022/11/03 00:21:03;;;;;;;6.40;2.95;;;11.10;69.20;;;;;;2374093;56;21526;-62
2022/11/03 00:23:32;;;;;;;11.70;2.78;;;11.10;69.10;;;;;;2374468;56;21648;-63
2022/11/03 00:26:08;;;;;;;8.48;3.05;;;11.00;69.00;;;;;;2374106;56;21553;-62
2022/11/03 00:28:36;;;;;;;4.75;2.65;;;11.10;69.10;;;;;;2374641;56;21055;-62
2022/11/03 00:31:08;;;;;;;10.65;2.60;;;11.00;69.00;;;;;;2374746;56;21600;-62
2022/11/03 00:33:36;;;;;;;7.10;3.47;;;11.10;69.00;;;;;;2374763;56;21632;-63
2022/11/03 00:36:04;;;;;;;7.57;2.83;;;11.00;68.90;;;;;;2374236;56;21063;-61
2022/11/03 00:38:32;;;;;;;7.12;2.85;;;11.00;69.00;;;;;;2374182;56;21055;-61
2022/11/03 00:41:01;;;;;;;10.73;3.25;;;11.10;69.00;;;;;;2373440;56;21584;-62
2022/11/03 00:43:30;;;;;;;4.82;2.65;;;11.10;68.90;;;;;;2374541;56;21525;-63
2022/11/03 00:45:58;;;;;;;7.18;3.10;;;11.00;68.80;;;;;;2374291;56;21585;-63
2022/11/03 00:48:32;;;;;;;10.30;3.53;;;11.10;68.80;;;;;;2373940;56;21620;-61
2022/11/03 00:51:05;;;;;;;6.68;2.78;;;11.00;68.70;;;;;;2374434;56;21569;-62
2022/11/03 00:56:15;;;;;;;4.50;2.40;;;11.00;68.70;;;;;;2329000;57;22104;-58
2022/11/03 00:58:43;;;;;;;4.22;2.37;;;10.90;68.90;;;;;;2351702;56;21047;-63
2022/11/03 01:01:13;;;;;;;12.07;3.25;;;11.00;68.90;;;;;;2375784;56;21565;-60
2022/11/03 01:06:48;;;;;;;7.53;2.72;;;11.00;68.90;;;;;;2375107;56;21034;-62
2022/11/03 01:09:35;;;;;;;12.20;3.75;;;11.00;69.10;;;;;;2374327;56;21548;-62
2022/11/03 01:12:05;;;;;;;7.32;2.53;;;11.00;68.60;;;;;;2375153;56;21043;-61
2022/11/03 01:14:34;;;;;;;6.85;3.05;;;10.90;68.80;;;;;;2375713;56;21322;-60
2022/11/03 01:17:03;;;;;;;11.27;3.20;;;10.90;69.00;;;;;;2375331;56;21562;-62
2022/11/03 01:19:30;;;;;;;4.05;2.25;;;10.90;69.10;;;;;;2375679;56;21539;-61
2022/11/03 01:21:58;;;;;;;9.65;3.05;;;10.90;69.20;;;;;;2375491;56;22522;-62
2022/11/03 01:24:25;;;;;;;6.05;2.60;;;10.90;69.30;;;;;;2375515;56;21122;-62
2022/11/03 01:26:53;;;;;;;8.55;3.05;;;10.90;69.30;;;;;;2375067;56;21566;-62
2022/11/03 01:29:20;;;;;;;8.75;2.83;;;10.90;69.30;;;;;;2375252;56;21043;-61
2022/11/03 01:31:47;;;;;;;6.32;2.22;;;10.90;69.30;;;;;;2374356;56;21067;-60
2022/11/03 01:34:17;;;;;;;6.35;2.40;;;10.90;69.30;;;;;;2375637;56;21596;-62
2022/11/03 01:36:45;;;;;;;6.82;2.60;;;10.90;69.30;;;;;;2375380;56;21042;-61
2022/11/03 01:39:14;;;;;;;7.07;2.47;;;10.90;69.30;;;;;;2375441;56;21042;-62
2022/11/03 01:41:42;;;;;;;8.55;2.90;;;10.90;69.50;;;;;;2375380;56;21502;-62
2022/11/03 01:44:30;;;;;;;7.72;2.50;;;10.90;69.60;;;;;;2375002;56;21035;-61
2022/11/03 01:47:04;;;;;;;6.50;2.55;;;10.90;69.50;;;;;;2375342;56;21585;-60
2022/11/03 01:49:36;;;;;;;8.05;2.83;;;10.90;69.30;;;;;;2375160;56;21590;-60
2022/11/03 01:52:08;;;;;;;10.70;3.58;;;10.90;69.30;;;;;;2375726;56;21051;-60
2022/11/03 01:54:38;;;;;;;6.25;2.42;;;10.90;69.40;;;;;;2375380;56;21484;-60
2022/11/03 01:57:09;;;;;;;5.37;2.67;;;10.90;69.30;;;;;;2375569;56;21594;-59
2022/11/03 01:59:37;;;;;;;7.90;2.35;;;10.90;69.20;;;;;;2373715;56;21506;-60
2022/11/03 02:02:04;;;;;;;7.75;2.80;;;10.90;69.30;;;;;;2375471;56;21031;-59
2022/11/03 02:04:34;;;;;;;9.50;2.92;;;10.90;69.40;;;;;;2375785;56;21597;-59
2022/11/03 02:07:10;;;;;;;8.93;2.75;;;10.90;69.30;;;;;;2374798;56;21027;-59
2022/11/03 02:09:37;;;;;;;7.12;2.67;;;10.90;69.40;;;;;;2374397;56;21115;-59
2022/11/03 02:12:06;;;;;;;8.90;2.35;;;11.00;69.40;;;;;;2373455;56;21031;-60
2022/11/03 02:14:36;;;;;;;10.43;3.62;;;10.90;69.30;;;;;;2374271;56;22186;-60
2022/11/03 02:17:07;;;;;;;8.90;2.50;;;11.00;69.30;;;;;;2374499;56;21066;-60
2022/11/03 02:19:38;;;;;;;5.75;2.72;;;11.00;69.40;;;;;;2374504;56;21063;-60
2022/11/03 02:22:22;;;;;;;8.95;2.65;;;11.00;69.50;;;;;;2374576;56;21101;-60
2022/11/03 02:24:52;;;;;;;4.07;2.08;;;11.00;69.40;;;;;;2374325;56;21510;-61
2022/11/03 02:27:19;;;;;;;8.90;2.33;;;11.00;69.40;;;;;;2374067;56;21110;-60
2022/11/03 02:29:47;;;;;;;7.43;2.25;;;11.00;69.50;;;;;;2373285;56;22927;-60
2022/11/03 02:32:20;;;;;;;6.55;2.40;;;11.00;69.40;;;;;;2374224;56;21588;-60
2022/11/03 02:34:53;;;;;;;8.88;2.85;;;11.00;69.40;;;;;;2372458;56;21514;-60
2022/11/03 02:37:23;;;;;;;6.87;2.70;;;11.00;69.40;;;;;;2374921;56;21059;-60
2022/11/03 02:42:30;;;;;;;8.18;2.33;;;11.00;69.40;;;;;;2356426;57;22149;-59
2022/11/03 02:45:01;;;;;;;6.72;2.35;;;11.00;69.40;;;;;;2347924;57;21041;-59
2022/11/03 02:47:31;;;;;;;6.82;2.30;;;11.00;69.40;;;;;;2347811;57;21938;-59
2022/11/03 02:49:58;;;;;;;4.55;2.00;;;11.00;69.20;;;;;;2366122;56;21695;-59
2022/11/03 02:52:37;;;;;;;9.15;2.22;;;11.00;69.20;;;;;;2375660;56;21046;-59
2022/11/03 02:55:11;;;;;;;5.72;2.00;;;11.00;69.00;;;;;;2375047;56;21035;-62
2022/11/03 02:57:43;;;;;;;9.75;2.20;;;11.00;68.90;;;;;;2375735;56;21538;-62
2022/11/03 03:00:12;;;;;;;7.03;2.37;;;11.00;68.90;;;;;;2374020;56;21596;-60
2022/11/03 03:02:44;;;;;;;7.87;1.92;;;11.00;69.60;;;;;;2375714;56;21051;-58
2022/11/03 03:05:13;;;;;;;6.85;3.15;;;11.00;68.90;;;;;;2375687;56;21578;-58
2022/11/03 03:07:44;;;;;;;9.55;2.35;;;11.10;69.10;;;;;;2375730;56;21537;-59
2022/11/03 03:10:15;;;;;;;7.90;2.33;;;11.00;69.10;;;;;;2374858;56;21629;-60
2022/11/03 03:12:48;;;;;;;7.97;2.72;;;11.10;69.10;;;;;;2375714;56;21170;-59
2022/11/03 03:15:17;;;;;;;9.77;2.22;;;11.00;69.00;;;;;;2375800;56;21114;-59
2022/11/03 03:17:50;;;;;;;8.50;2.40;;;11.10;69.10;;;;;;2375464;56;21530;-60
2022/11/03 03:20:25;;;;;;;10.50;3.37;;;11.10;69.00;;;;;;2375138;56;21506;-59
2022/11/03 03:22:58;;;;;;;7.15;2.80;;;11.10;69.00;;;;;;2374876;56;21114;-58
2022/11/03 03:25:28;;;;;;;5.65;2.08;;;11.10;69.00;;;;;;2375726;56;21672;-60
2022/11/03 03:28:01;;;;;;;6.60;2.03;;;11.10;69.10;;;;;;2375351;56;21039;-59
2022/11/03 03:30:30;;;;;;;;;;;11.20;69.20;;;;;;2379094;56;21616;-59
2022/11/03 03:33:00;;;;;;;8.10;2.17;;;11.20;69.40;;;;;;2375125;56;20077;-60
2022/11/03 03:35:29;;;;;;;9.07;2.37;;;11.20;68.80;;;;;;2375688;56;21604;-60
2022/11/03 03:38:01;;;;;;;4.95;2.47;;;11.20;69.00;;;;;;2375426;56;21146;-60
2022/11/03 03:43:07;;;;;;;8.60;2.37;;;11.10;69.10;;;;;;2336707;57;28772;-60
2022/11/03 03:45:35;;;;;;;7.05;2.97;;;10.90;70.20;;;;;;2348260;57;21723;-59
2022/11/03 03:48:03;;;;;;;7.22;2.22;;;11.10;69.90;;;;;;2347092;57;21088;-60
2022/11/03 03:50:34;;;;;;;5.35;2.30;;;11.10;69.30;;;;;;2372186;56;21039;-59
2022/11/03 03:53:04;;;;;;;9.05;2.35;;;11.10;69.00;;;;;;2375363;56;21490;-60
2022/11/03 03:55:37;;;;;;;11.98;2.62;;;11.20;68.90;;;;;;2375357;56;21578;-60
2022/11/03 03:58:05;;;;;;;6.62;1.90;;;11.10;68.80;;;;;;2375647;56;21530;-59
2022/11/03 04:00:33;;;;;;;10.02;2.83;;;11.20;68.80;;;;;;2375654;56;21086;-59
2022/11/03 04:03:00;;;;;;;5.65;2.72;;;11.20;68.70;;;;;;2375068;56;21081;-60
2022/11/03 04:05:28;;;;;;;4.10;2.22;;;11.10;68.80;;;;;;2375374;56;21518;-60
2022/11/03 04:07:57;;;;;;;9.50;2.70;;;11.10;68.90;;;;;;2375537;56;21881;-60
2022/11/03 04:10:24;;;;;;;7.43;2.97;;;11.10;68.90;;;;;;2375388;56;21537;-61
2022/11/03 04:23:59;;;;;;;10.27;2.47;;;10.90;69.30;;;;;;2375487;56;20991;-60
2022/11/03 04:26:27;;;;;;;7.40;2.17;;;10.90;69.30;;;;;;2375049;56;21770;-61
2022/11/03 04:28:56;;;;;;;6.62;2.60;;;10.90;69.40;;;;;;2375803;56;21051;-61
2022/11/03 04:31:25;;;;;;;9.68;3.25;;;10.90;69.50;;;;;;2375271;56;22176;-62
2022/11/03 04:33:53;;;;;;;8.70;2.25;;;10.90;69.60;;;;;;2375560;56;21039;-61
2022/11/03 04:38:57;;;;;;;7.28;2.12;;;10.90;69.70;;;;;;2328835;57;22122;-60
2022/11/03 04:41:30;;;;;;;7.12;2.20;;;10.80;70.40;;;;;;2320284;58;21102;-60
2022/11/03 04:43:57;;;;;;;;;;;10.80;69.60;;;;;;2323074;58;21526;-59
2022/11/03 04:46:26;;;;;;;5.30;2.10;;;11.00;69.70;;;;;;2319645;58;20356;-63
2022/11/03 04:48:56;;;;;;;4.75;2.53;;;10.90;69.10;;;;;;2320242;58;21549;-62
2022/11/03 04:51:26;;;;;;;9.43;3.55;;;10.90;69.30;;;;;;2320337;58;21543;-59
2022/11/03 04:53:57;;;;;;;5.93;2.15;;;10.80;69.50;;;;;;2319053;58;21509;-61
2022/11/03 04:56:25;;;;;;;5.30;2.10;;;10.80;69.60;;;;;;2320107;58;21582;-61
2022/11/03 04:58:53;;;;;;;9.48;2.40;;;10.80;69.70;;;;;;2319980;58;21058;-62
2022/11/03 05:01:22;;;;;;;2.97;2.08;;;10.80;69.90;;;;;;2320286;58;21562;-61
2022/11/03 05:03:52;;;;;;;7.07;2.62;;;10.70;70.00;;;;;;2319666;58;21035;-60
2022/11/03 05:06:22;;;;;;;8.25;2.15;;;10.70;70.00;;;;;;2319816;58;21101;-61
2022/11/03 05:08:52;;;;;;;4.28;2.03;;;10.70;70.20;;;;;;2319964;58;21067;-61
2022/11/03 05:14:00;;;;;;;5.37;2.17;;;10.70;70.50;;;;;;2356305;57;22062;-60
2022/11/03 05:16:28;;;;;;;7.97;2.60;;;10.70;70.50;;;;;;2348172;57;21045;-63
2022/11/03 05:18:56;;;;;;;5.75;2.35;;;10.60;70.50;;;;;;2354095;56;21129;-61
2022/11/03 05:21:26;;;;;;;8.63;2.50;;;10.60;70.60;;;;;;2375030;56;21114;-60
2022/11/03 05:23:57;;;;;;;5.85;2.37;;;10.70;70.50;;;;;;2375574;56;21565;-60
2022/11/03 05:26:28;;;;;;;7.87;2.90;;;10.60;70.40;;;;;;2374764;56;21150;-59
2022/11/03 05:28:59;;;;;;;6.22;2.30;;;10.60;70.40;;;;;;2375213;56;21486;-58
2022/11/03 05:31:29;;;;;;;12.30;2.75;;;10.60;70.40;;;;;;2375615;56;21621;-61
2022/11/03 05:33:59;;;;;;;4.75;2.28;;;10.60;70.40;;;;;;2375375;56;21094;-59
2022/11/03 05:39:25;;;;;;;7.20;2.40;;;10.60;70.60;;;;;;2348348;57;22159;-59
2022/11/03 05:41:52;;;;;;;8.27;2.12;;;10.60;70.60;;;;;;2348164;57;21046;-59
2022/11/03 05:44:29;;;;;;;8.57;3.33;;;10.50;70.50;;;;;;2348197;57;21620;-59
2022/11/03 05:46:57;;;;;;;9.48;2.58;;;10.50;70.80;;;;;;2347559;57;21540;-59
2022/11/03 05:49:24;;;;;;;9.95;2.30;;;10.50;71.00;;;;;;2348320;57;21529;-59
2022/11/03 05:51:52;;;;;;;3.65;2.40;;;10.50;71.30;;;;;;2347486;57;21524;-58
2022/11/03 05:54:22;;;;;;;8.13;2.80;;;10.50;71.40;;;;;;2347713;57;21073;-59
2022/11/03 05:59:27;;;;;;;5.60;2.42;;;10.50;71.50;;;;;;2324489;57;27909;-59
2022/11/03 06:01:58;;;;;;;6.05;2.25;;;10.20;73.80;;;;;;2348025;57;21025;-59
2022/11/03 06:04:31;;;;;;;10.68;2.75;;;10.40;73.20;;;;;;2347989;57;21505;-58
2022/11/03 06:07:03;;;;;;;3.78;2.12;;;10.40;72.40;;;;;;2347810;57;21049;-62
2022/11/03 06:09:33;;;;;;;8.38;3.10;;;10.50;72.10;;;;;;2346511;57;21348;-62
2022/11/03 06:12:04;;;;;;;5.68;2.10;;;10.50;72.00;;;;;;2347212;57;21561;-62
2022/11/03 06:14:32;;;;;;;6.53;2.70;;;10.50;71.30;;;;;;2347057;57;21085;-62
2022/11/03 06:19:39;;;;;;;8.07;2.60;;;10.40;72.10;;;;;;2341717;57;22166;-60
2022/11/03 06:22:15;;;;;;;12.35;2.72;;;10.40;72.30;;;;;;2347632;57;21531;-59
2022/11/03 06:24:44;;;;;;;6.45;2.50;;;10.40;72.40;;;;;;2347193;57;21547;-59
2022/11/03 06:29:52;;;;;;;9.05;3.45;;;10.50;72.50;;;;;;2299822;58;22211;-61
2022/11/03 06:32:19;;;;;;;10.15;2.60;;;10.40;72.50;;;;;;2291824;58;21064;-60
2022/11/03 06:34:51;;;;;;;8.40;2.72;;;10.40;72.60;;;;;;2292190;58;21049;-59
2022/11/03 06:37:24;;;;;;;7.32;2.70;;;10.40;72.70;;;;;;2291223;58;21654;-59
2022/11/03 06:39:57;;;;;;;7.85;2.62;;;10.40;72.70;;;;;;2292300;58;21076;-60
2022/11/03 06:42:25;;;;;;;;;;;10.50;72.80;;;;;;2295431;58;21120;-60
2022/11/03 06:44:52;;;;;;;6.55;2.30;;;10.60;72.70;;;;;;2292000;58;20303;-59
2022/11/03 06:47:25;;;;;;;10.32;2.83;;;10.50;72.40;;;;;;2291966;58;21073;-59
2022/11/03 06:49:55;;;;;;;6.07;2.45;;;10.50;72.70;;;;;;2292036;58;21096;-62
2022/11/03 06:52:29;;;;;;;7.97;2.83;;;10.50;73.00;;;;;;2292046;58;21056;-60
2022/11/03 06:55:17;;;;;;;10.50;2.87;;;10.50;73.10;;;;;;2291936;58;21056;-60
2022/11/03 06:57:47;;;;;;;7.32;2.62;;;10.50;73.20;;;;;;2291840;58;22677;-61
2022/11/03 07:03:04;;;;;;;4.68;2.20;;;10.50;73.10;;;;;;2326684;57;23166;-61
2022/11/03 07:05:32;;;;;;;8.80;2.30;;;10.50;73.10;;;;;;2318249;58;21236;-60
2022/11/03 07:08:02;;;;;;;9.70;2.62;;;10.50;73.20;;;;;;2317996;58;21080;-63
2022/11/03 07:10:32;;;;;;;8.00;2.62;;;10.60;73.30;;;;;;2342586;57;21038;-64
2022/11/03 07:15:43;;;;;;;6.45;2.25;;;10.60;73.10;;;;;;2354484;57;22524;-51
2022/11/03 07:18:19;;;;;;;5.37;2.25;;;10.70;73.20;;;;;;2346194;57;21156;-55
2022/11/03 07:20:46;;;;;;;11.23;2.75;;;10.70;73.20;;;;;;2373422;56;21067;-52
2022/11/03 07:23:18;;;;;;;7.70;2.45;;;10.70;73.10;;;;;;2375357;56;21533;-55
2022/11/03 07:25:52;;;;;;;5.55;2.72;;;10.70;73.00;;;;;;2375467;56;21119;-54
2022/11/03 07:28:18;;;;;;;;;;;10.80;72.90;;;;;;2379437;56;21115;-53
2022/11/03 07:30:46;;;;;;;7.65;2.40;;;10.90;72.90;;;;;;2375510;56;20200;-55
2022/11/03 07:33:17;;;;;;;10.15;2.37;;;10.90;72.50;;;;;;2375654;56;21102;-53
2022/11/03 07:35:46;;;;;;;7.25;2.28;;;10.90;72.70;;;;;;2373057;56;21055;-55
2022/11/03 07:38:17;;;;;;;7.45;2.78;;;10.90;72.80;;;;;;2375175;56;21258;-55
2022/11/03 07:40:45;;;;;;;7.32;2.60;;;10.90;72.80;;;;;;2375802;56;21538;-54
2022/11/03 07:43:17;;;;;;;10.15;2.50;;;10.90;72.70;;;;;;2375434;56;21574;-53
2022/11/03 07:45:48;;;;;;;5.55;2.42;;;11.00;72.70;;;;;;2375733;56;21027;-55
2022/11/03 07:48:20;;;;;;;10.73;2.90;;;11.00;72.70;;;;;;2375816;56;21498;-53
2022/11/03 07:50:49;;;;;;;10.18;3.05;;;11.10;72.70;;;;;;2375372;56;21576;-52
2022/11/03 07:53:22;;;;;;;6.03;1.92;;;11.10;72.60;;;;;;2375204;56;21534;-57
2022/11/03 07:55:52;;;;;;;5.30;1.92;;;11.10;72.60;;;;;;2374737;56;21625;-54
2022/11/03 07:58:35;;;;;;;8.13;2.47;;;11.20;72.60;;;;;;2375302;56;21110;-53
2022/11/03 08:01:07;;;;;;;;;;;11.20;72.50;;;;;;2378993;56;21091;-51
2022/11/03 08:03:43;;;;;;;5.90;2.22;;;11.30;72.40;;;;;;2375421;56;20164;-51
2022/11/03 08:06:11;;;;;;;8.80;2.97;;;11.30;72.00;;;;;;2375877;56;21505;-54
2022/11/03 08:08:38;;;;;;;8.10;2.47;;;11.30;72.10;;;;;;2375049;56;21079;-54
2022/11/03 08:11:06;;;;;;;8.10;2.87;;;11.30;72.20;;;;;;2373757;56;21058;-55
2022/11/03 08:13:33;;;;;;;7.32;2.45;;;11.40;72.30;;;;;;2375092;56;21533;-54
2022/11/03 08:16:00;;;;;;;8.80;2.62;;;11.40;72.30;;;;;;2375194;56;21035;-57
2022/11/03 08:18:28;;;;;;;9.75;2.53;;;11.50;71.90;;;;;;2375244;56;21023;-54
2022/11/03 08:20:55;;;;;;;11.00;2.42;;;11.50;71.80;;;;;;2375884;56;21490;-54
2022/11/03 08:23:22;;;;;;;4.60;2.10;;;11.50;71.60;;;;;;2375362;56;21566;-54
2022/11/03 08:25:49;;;;;;;6.87;3.45;;;11.50;71.60;;;;;;2374493;56;21126;-52
2022/11/03 08:28:16;;;;;;;6.72;2.25;;;11.60;71.50;;;;;;2374164;56;21121;-53
2022/11/03 08:30:44;;;;;;;8.65;2.35;;;11.60;71.50;;;;;;2374697;56;21051;-54
2022/11/03 08:33:11;;;;;;;10.95;2.30;;;11.60;71.30;;;;;;2373273;56;21094;-55
2022/11/03 08:35:38;;;;;;;6.40;2.05;;;11.70;71.40;;;;;;2374466;56;21610;-55
2022/11/03 08:38:05;;;;;;;9.35;2.37;;;11.70;71.40;;;;;;2374282;56;21790;-53
2022/11/03 08:40:33;;;;;;;12.45;2.70;;;11.80;71.10;;;;;;2374400;56;21217;-55
2022/11/03 08:43:01;;;;;;;12.20;2.53;;;11.80;71.10;;;;;;2374021;56;21584;-54
2022/11/03 08:45:29;;;;;;;9.10;2.50;;;11.80;70.90;;;;;;2374117;56;21667;-57
2022/11/03 08:47:57;;;;;;;11.60;3.20;;;11.80;70.80;;;;;;2374810;56;21506;-55
2022/11/03 08:50:24;;;;;;;5.87;2.37;;;11.90;70.80;;;;;;2373900;56;21486;-52
2022/11/03 08:52:51;;;;;;;35.03;3.37;;;12.00;70.70;;;;;;2374416;56;21035;-54
2022/11/03 08:55:18;;;;;;;17.73;2.78;;;12.00;70.70;;;;;;2373857;56;21046;-58
2022/11/03 08:57:46;;;;;;;10.07;2.78;;;12.10;70.80;;;;;;2374239;56;21330;-57
2022/11/03 09:00:16;;;;;;;8.10;2.28;;;12.10;70.60;;;;;;2374559;56;21552;-55
2022/11/03 09:02:43;;;;;;;8.40;2.20;;;12.10;70.60;;;;;;2374802;56;21102;-53
2022/11/03 09:05:11;;;;;;;33.28;4.65;;;12.20;70.40;;;;;;2373994;56;21047;-53
2022/11/03 09:07:39;;;;;;;19.33;2.83;;;12.20;70.40;;;;;;2374273;56;21573;-52
2022/11/03 09:10:09;;;;;;;12.27;2.25;;;12.20;71.40;;;;;;2374242;56;21035;-54
2022/11/03 09:12:37;;;;;;;8.00;2.87;;;12.30;70.50;;;;;;2374822;56;21572;-56
2022/11/03 09:17:40;;;;;;;5.40;2.00;;;12.40;70.50;;;;;;2336589;57;27812;-52
2022/11/03 09:20:09;;;;;;;6.07;2.20;;;12.50;71.00;;;;;;2367757;56;21106;-50
2022/11/03 09:22:36;;;;;;;9.27;2.10;;;12.50;70.70;;;;;;2375357;56;22153;-50
2022/11/03 09:25:05;;;;;;;6.40;2.35;;;12.60;70.20;;;;;;2375566;56;21035;-53
2022/11/03 09:27:32;;;;;;;10.95;2.37;;;12.70;69.70;;;;;;2374974;56;21139;-54
2022/11/03 09:30:00;;;;;;;5.82;2.45;;;12.70;69.30;;;;;;2375620;56;21050;-53
2022/11/03 09:32:27;;;;;;;6.43;2.37;;;12.80;69.40;;;;;;2375562;56;21111;-53
2022/11/03 09:34:54;;;;;;;7.75;2.28;;;12.80;69.30;;;;;;2375561;56;21103;-51
2022/11/03 09:37:22;;;;;;;7.47;2.30;;;12.90;69.20;;;;;;2375082;56;21054;-54
2022/11/03 09:39:49;;;;;;;3.85;1.70;;;12.90;69.00;;;;;;2375449;56;21074;-55
2022/11/03 09:42:17;;;;;;;7.30;2.03;;;13.00;68.80;;;;;;2375927;56;21542;-52
2022/11/03 09:44:47;;;;;;;5.55;2.40;;;13.00;68.60;;;;;;2375201;56;21577;-56
2022/11/03 09:47:21;;;;;;;5.40;2.20;;;13.00;68.70;;;;;;2373580;56;21047;-53
2022/11/03 09:49:49;;;;;;;5.65;2.45;;;13.10;68.60;;;;;;2375257;56;21541;-52
2022/11/03 09:52:21;;;;;;;7.40;2.50;;;13.10;68.40;;;;;;2373884;56;21043;-52
2022/11/03 09:54:51;;;;;;;8.05;2.25;;;13.10;68.20;;;;;;2373567;56;21115;-54
2022/11/03 09:57:18;;;;;;;7.55;2.35;;;13.20;68.00;;;;;;2374115;56;21561;-52
2022/11/03 09:59:48;;;;;;;9.52;2.45;;;13.20;68.10;;;;;;2374975;56;21056;-50
2022/11/03 10:02:21;;;;;;;5.00;2.12;;;13.20;68.00;;;;;;2374785;56;21055;-51
2022/11/03 10:04:49;;;;;;;10.63;3.20;;;13.30;67.90;;;;;;2372959;56;21526;-56
2022/11/03 10:07:16;;;;;;;4.62;1.77;;;13.40;67.40;;;;;;2372809;56;21889;-54
2022/11/03 10:09:48;;;;;;;9.18;2.22;;;13.40;67.50;;;;;;2373925;56;21031;-54
2022/11/03 10:12:16;;;;;;;4.87;1.95;;;13.40;67.80;;;;;;2374594;56;21703;-54
2022/11/03 10:14:45;;;;;;;7.97;2.45;;;13.50;67.60;;;;;;2374879;56;21580;-53
2022/11/03 10:17:16;;;;;;;8.68;2.05;;;13.50;67.50;;;;;;2374185;56;21094;-55
2022/11/03 10:19:46;;;;;;;5.62;2.05;;;13.50;67.50;;;;;;2372998;56;21031;-52
2022/11/03 10:25:22;;;;;;;8.85;2.62;;;13.60;67.30;;;;;;2254331;59;28063;-56
2022/11/03 10:27:50;;;;;;;6.90;2.00;;;13.80;68.40;;;;;;2291964;58;21115;-57
2022/11/03 10:30:17;;;;;;;6.97;2.00;;;13.90;67.80;;;;;;2312184;58;21530;-56
2022/11/03 10:35:35;;;;;;;6.87;1.95;;;14.00;67.00;;;;;;2356218;57;22568;-55
2022/11/03 10:40:48;;;;;;;6.70;1.98;;;14.00;66.70;;;;;;2379762;56;22196;-52
2022/11/03 10:43:15;;;;;;;4.43;1.62;;;14.10;66.20;;;;;;2347539;57;21034;-57
2022/11/03 10:45:42;;;;;;;6.25;2.08;;;14.10;66.20;;;;;;2347957;57;21061;-57
2022/11/03 10:48:11;;;;;;;5.25;1.95;;;14.10;66.20;;;;;;2348031;57;21030;-60
2022/11/03 10:50:39;;;;;;;5.28;1.80;;;14.20;66.30;;;;;;2348041;57;21057;-60
2022/11/03 10:53:15;;;;;;;5.53;2.30;;;14.20;66.20;;;;;;2347303;57;21029;-58
2022/11/03 10:55:43;;;;;;;8.73;2.47;;;14.30;66.10;;;;;;2347352;57;21113;-57
2022/11/03 10:58:10;;;;;;;7.53;2.08;;;14.30;65.90;;;;;;2347891;57;21536;-59
2022/11/03 11:00:39;;;;;;;6.80;2.47;;;14.30;66.10;;;;;;2347751;57;21579;-60
2022/11/03 11:03:07;;;;;;;5.70;2.15;;;14.30;65.90;;;;;;2347762;57;21088;-61
2022/11/03 11:05:34;;;;;;;8.68;1.98;;;14.40;66.00;;;;;;2347532;57;21508;-58
2022/11/03 11:08:01;;;;;;;4.22;1.80;;;14.40;66.00;;;;;;2346931;57;21635;-61
2022/11/03 11:10:30;;;;;;;8.02;2.47;;;14.40;65.80;;;;;;2347659;57;21576;-59
2022/11/03 11:13:25;;;;;;;4.97;1.73;;;14.50;65.80;;;;;;2347858;57;21045;-61
2022/11/03 11:15:55;;;;;;;5.30;1.62;;;14.50;65.90;;;;;;2347096;57;21105;-61
2022/11/03 11:19:15;;;;;;;7.07;2.40;;;14.50;65.80;;;;;;2347128;57;21042;-60
2022/11/03 11:28:18;;;;;;;7.50;2.30;;;14.70;65.40;;;;;;2355586;57;22592;-58
2022/11/03 11:31:26;;;;;;;5.90;1.85;;;14.70;65.60;;;;;;2374632;56;21063;-60
2022/11/03 11:34:30;;;;;;;6.07;2.05;;;14.70;65.40;;;;;;2373871;56;21071;-57
2022/11/03 11:37:33;;;;;;;7.53;2.40;;;14.70;65.50;;;;;;2374590;56;21550;-59
2022/11/03 11:40:01;;;;;;;4.65;1.77;;;14.80;65.40;;;;;;2374674;56;21159;-60
2022/11/03 11:42:28;;;;;;;6.82;2.30;;;14.80;65.30;;;;;;2373075;56;21151;-60
2022/11/03 11:45:10;;;;;;;5.37;1.55;;;14.80;65.50;;;;;;2374113;56;21635;-61
2022/11/03 11:47:50;;;;;;;7.93;2.10;;;14.90;65.50;;;;;;2374432;56;21039;-60
2022/11/03 11:53:22;;;;;;;6.20;2.40;;;15.00;65.50;;;;;;2353813;57;22078;-60
2022/11/03 11:55:52;;;;;;;10.13;2.90;;;15.10;65.60;;;;;;2346686;57;21034;-59
2022/11/03 12:01:05;;;;;;;6.45;2.42;;;15.20;65.20;;;;;;2355847;57;22612;-63
2022/11/03 12:03:40;;;;;;;7.18;2.17;;;15.20;65.00;;;;;;2346926;57;21061;-62
2022/11/03 12:06:11;;;;;;;6.47;2.40;;;15.20;64.90;;;;;;2347300;57;21524;-61
2022/11/03 12:08:39;;;;;;;4.30;1.80;;;15.30;64.80;;;;;;2349754;56;21057;-59
2022/11/03 12:11:08;;;;;;;5.12;1.75;;;15.20;64.70;;;;;;2374490;56;21543;-60
2022/11/03 12:13:47;;;;;;;5.15;1.80;;;15.30;64.70;;;;;;2374056;56;21510;-60
2022/11/03 12:19:35;;;;;;;7.87;2.55;;;15.30;64.50;;;;;;2364794;56;23305;-60
2022/11/03 12:22:04;;;;;;;7.28;2.30;;;15.40;64.40;;;;;;2375141;56;21054;-60
2022/11/03 12:27:42;;;;;;;6.78;2.33;;;15.40;64.10;;;;;;2355004;57;22591;-60
2022/11/03 12:30:15;;;;;;;8.77;2.35;;;15.50;64.20;;;;;;2367635;56;21106;-61
2022/11/03 12:32:42;;;;;;;6.18;1.83;;;15.50;63.70;;;;;;2373687;56;21050;-61
2022/11/03 12:35:12;;;;;;;8.27;2.70;;;15.60;63.60;;;;;;2374929;56;21625;-60
2022/11/03 12:37:40;;;;;;;4.00;1.80;;;15.60;63.50;;;;;;2374353;56;21174;-62
2022/11/03 12:40:11;;;;;;;29.05;12.40;;;15.60;63.30;;;;;;2373962;56;21031;-61
2022/11/03 12:42:39;;;;;;;17.30;6.47;;;15.70;63.30;;;;;;2374182;56;21074;-62
2022/11/03 12:45:08;;;;;;;9.50;2.60;;;15.70;63.40;;;;;;2374383;56;21582;-60
2022/11/03 12:47:35;;;;;;;7.47;2.20;;;15.70;63.20;;;;;;2374638;56;21051;-61
2022/11/03 12:50:03;;;;;;;9.30;2.50;;;15.80;63.20;;;;;;2373911;56;21039;-60
2022/11/03 12:52:31;;;;;;;5.82;1.98;;;15.80;63.10;;;;;;2374313;56;22252;-61
2022/11/03 12:54:58;;;;;;;5.68;2.25;;;15.80;63.40;;;;;;2374356;56;21043;-62
2022/11/03 13:00:04;;;;;;;9.30;2.50;;;16.00;63.20;;;;;;2337166;57;23200;-61
2022/11/03 13:05:14;;;;;;;6.47;2.00;;;16.00;62.70;;;;;;2355533;57;22074;-61
2022/11/03 13:07:41;;;;;;;5.37;2.62;;;16.00;62.70;;;;;;2346123;57;21576;-61
2022/11/03 13:10:09;;;;;;;5.93;2.10;;;16.00;62.60;;;;;;2365740;56;21087;-61
2022/11/03 13:12:40;;;;;;;6.87;1.65;;;16.00;62.50;;;;;;2374573;56;21058;-62
2022/11/03 13:15:12;;;;;;;5.80;2.05;;;16.00;62.50;;;;;;2374710;56;21522;-62
2022/11/03 13:17:39;;;;;;;6.32;1.75;;;16.00;62.40;;;;;;2374630;56;21035;-61
2022/11/03 13:22:42;;;;;;;8.15;2.08;;;16.00;62.30;;;;;;2355520;57;22623;-61
2022/11/03 13:25:10;;;;;;;6.65;1.90;;;16.00;62.10;;;;;;2346089;57;21080;-61
2022/11/03 13:27:37;;;;;;;4.57;1.80;;;16.00;62.40;;;;;;2346647;57;21627;-61
2022/11/03 13:30:08;;;;;;;7.20;2.05;;;15.90;62.40;;;;;;2366136;56;21087;-61
2022/11/03 13:32:37;;;;;;;12.35;2.15;;;16.00;62.40;;;;;;2375003;56;21577;-61
2022/11/03 13:35:06;;;;;;;8.27;2.40;;;15.90;62.90;;;;;;2374990;56;21547;-61
2022/11/03 13:37:34;;;;;;;6.30;2.00;;;16.00;62.90;;;;;;2374735;56;21577;-59
2022/11/03 13:40:01;;;;;;;7.87;2.50;;;16.00;62.80;;;;;;2375269;56;21038;-61
2022/11/03 13:42:28;;;;;;;3.85;1.70;;;16.00;62.90;;;;;;2373945;56;21078;-62
2022/11/03 13:44:56;;;;;;;6.75;1.92;;;16.00;62.90;;;;;;2373326;56;21031;-62
2022/11/03 13:47:23;;;;;;;7.82;2.22;;;15.90;62.70;;;;;;2374239;56;21126;-61
2022/11/03 13:49:51;;;;;;;5.50;1.87;;;15.90;62.80;;;;;;2373732;56;21091;-60
2022/11/03 13:52:18;;;;;;;6.45;2.28;;;15.90;63.10;;;;;;2374274;56;21560;-62
2022/11/03 13:54:46;;;;;;;16.17;2.85;;;15.90;62.90;;;;;;2374528;56;21931;-61
2022/11/03 13:57:14;;;;;;;6.47;2.40;;;15.90;63.10;;;;;;2373882;56;21070;-62
2022/11/03 13:59:41;;;;;;;7.05;2.05;;;15.90;63.10;;;;;;2374275;56;21093;-61
2022/11/03 14:02:10;;;;;;;5.82;2.10;;;15.90;63.20;;;;;;2374414;56;21604;-62
2022/11/03 14:04:38;;;;;;;5.68;2.10;;;15.90;63.30;;;;;;2374295;56;21589;-61
2022/11/03 14:07:05;;;;;;;6.78;2.12;;;15.90;63.30;;;;;;2372238;56;21592;-61
2022/11/03 14:09:33;;;;;;;9.48;2.95;;;15.90;63.40;;;;;;2374974;56;21525;-62
2022/11/03 14:14:46;;;;;;;8.02;2.25;;;15.70;63.60;;;;;;2373587;56;21006;-61
2022/11/03 14:17:13;;;;;;;6.87;1.98;;;15.70;63.80;;;;;;2373549;56;21114;-59
2022/11/03 14:19:40;;;;;;;8.38;2.47;;;15.60;64.00;;;;;;2373004;56;21119;-60
2022/11/03 14:22:08;;;;;;;6.30;2.22;;;15.60;64.40;;;;;;2375895;56;21079;-60
2022/11/03 14:24:35;;;;;;;7.78;2.20;;;15.60;64.70;;;;;;2375891;56;21711;-59